Time;durP1;ratioP1;P1;durP2;ratioP2;P2;SDS_P1;SDS_P2;PMS_P1;PMS_P2;Temp;Humidity;BMP_temperature;BMP_pressure;BME280_temperature;BME280_humidity;BME280_pressure;Samples;Min_cycle;Max_cycle;Signal;HPM_P1;HPM_P2
2021/09/06 00:00:41;;;;;;;;;;;14.20;99.90;;;;;;5104911;27;19927;-91
2021/09/06 00:03:07;;;;;;;;;;;14.10;99.90;;;;;;5095418;28;19926;-90
2021/09/06 00:05:32;;;;;;;;;;;14.10;99.90;;;;;;5094972;27;20386;-92
2021/09/06 00:07:58;;;;;;;;;;;14.10;99.90;;;;;;5095706;28;19931;-92
2021/09/06 00:10:30;;;;;;;;;;;14.00;99.90;;;;;;5092389;28;20002;-91
2021/09/06 00:12:55;;;;;;;;;;;14.00;99.90;;;;;;5090789;28;19930;-91
2021/09/06 00:15:21;;;;;;;;;;;14.00;99.90;;;;;;5125962;27;19928;-91
2021/09/06 00:17:47;;;;;;;;;;;13.90;99.90;;;;;;5075198;28;20290;-91
2021/09/06 00:20:12;;;;;;;;;;;13.90;99.90;;;;;;5093247;28;19927;-92
2021/09/06 00:22:38;;;;;;;;;;;13.90;99.90;;;;;;5077297;28;20256;-92
2021/09/06 00:25:04;;;;;;;;;;;13.90;99.90;;;;;;5105688;27;19931;-91
2021/09/06 00:27:29;;;;;;;;;;;13.80;99.90;;;;;;5092440;28;20379;-90
2021/09/06 00:29:55;;;;;;;;;;;13.80;99.90;;;;;;5126716;27;20534;-91
2021/09/06 00:32:20;;;;;;;;;;;13.80;99.90;;;;;;5073359;28;19990;-91
2021/09/06 00:34:46;;;;;;;;;;;13.80;99.90;;;;;;5092897;28;19968;-91
2021/09/06 00:37:11;;;;;;;;;;;13.70;99.90;;;;;;5091799;28;19927;-91
2021/09/06 00:39:37;;;;;;;;;;;13.70;99.90;;;;;;5097117;27;19924;-91
2021/09/06 00:42:03;;;;;;;;;;;13.70;99.90;;;;;;5125860;27;20294;-91
2021/09/06 00:44:28;;;;;;;;;;;13.70;99.90;;;;;;5103394;27;19920;-92
2021/09/06 00:46:59;;;;;;;;;;;13.70;99.90;;;;;;5130862;27;19931;-92
2021/09/06 00:49:24;;;;;;;;;;;13.70;99.90;;;;;;5075776;28;20405;-91
2021/09/06 00:51:50;;;;;;;;;;;13.60;99.90;;;;;;5090435;28;20019;-91
2021/09/06 00:54:16;;;;;;;;;;;13.60;99.90;;;;;;5091199;28;19920;-91
2021/09/06 00:56:42;;;;;;;;;;;13.60;99.90;;;;;;5115106;27;19932;-92
2021/09/06 00:59:08;;;;;;;;;;;13.50;99.90;;;;;;5068599;28;19997;-91
2021/09/06 01:01:33;;;;;;;;;;;13.50;99.90;;;;;;5123201;27;20386;-91
2021/09/06 01:03:59;;;;;;;;;;;13.50;99.90;;;;;;5106090;28;19924;-92
2021/09/06 01:06:25;;;;;;;;;;;13.40;99.90;;;;;;5069781;28;19924;-91
2021/09/06 01:08:50;;;;;;;;;;;13.50;99.90;;;;;;5074017;28;20064;-91
2021/09/06 01:11:16;;;;;;;;;;;13.40;99.90;;;;;;5075178;28;19923;-90
2021/09/06 01:13:42;;;;;;;;;;;13.40;99.90;;;;;;5089956;28;19920;-90
2021/09/06 01:16:07;;;;;;;;;;;13.40;99.90;;;;;;5075569;28;19926;-91
2021/09/06 01:18:33;;;;;;;;;;;13.50;99.90;;;;;;5071002;28;19960;-91
2021/09/06 01:20:59;;;;;;;;;;;13.40;99.90;;;;;;5070990;28;19929;-91
2021/09/06 01:23:24;;;;;;;;;;;13.40;99.90;;;;;;5091282;28;20409;-91
2021/09/06 01:25:50;;;;;;;;;;;13.40;99.90;;;;;;5092583;28;19924;-91
2021/09/06 01:28:16;;;;;;;;;;;13.40;99.90;;;;;;5090439;28;19959;-91
2021/09/06 01:30:42;;;;;;;;;;;13.40;99.90;;;;;;5108081;28;20014;-91
2021/09/06 01:33:08;;;;;;;;;;;13.40;99.90;;;;;;5109003;28;20014;-91
2021/09/06 01:35:33;;;;;;;;;;;13.30;99.90;;;;;;5105075;28;19931;-91
2021/09/06 01:37:59;;;;;;;;;;;13.30;99.90;;;;;;5092600;28;19924;-90
2021/09/06 01:40:25;;;;;;;;;;;13.30;99.90;;;;;;5091731;28;19930;-91
2021/09/06 01:42:54;;;;;;;;;;;13.30;99.90;;;;;;5111358;28;20388;-90
2021/09/06 01:45:19;;;;;;;;;;;13.30;99.90;;;;;;5112240;28;19931;-90
2021/09/06 01:47:45;;;;;;;;;;;13.20;99.90;;;;;;5079271;28;19924;-89
2021/09/06 01:50:10;;;;;;;;;;;13.30;99.90;;;;;;5074214;28;19970;-91
2021/09/06 01:52:36;;;;;;;;;;;13.30;99.90;;;;;;5076201;28;19920;-91
2021/09/06 01:55:02;;;;;;;;;;;13.20;99.90;;;;;;5127329;27;20557;-90
2021/09/06 01:57:29;;;;;;;;;;;13.20;99.90;;;;;;5119030;27;20278;-90
2021/09/06 01:59:55;;;;;;;;;;;13.20;99.90;;;;;;5097458;28;19977;-90
2021/09/06 02:02:21;;;;;;;;;;;13.20;99.90;;;;;;5121856;27;19919;-89
2021/09/06 02:04:46;;;;;;;;;;;13.20;99.90;;;;;;5084419;28;19967;-91
2021/09/06 02:07:12;;;;;;;;;;;13.20;99.90;;;;;;5126779;27;19992;-90
2021/09/06 02:09:38;;;;;;;;;;;13.20;99.90;;;;;;5085016;27;19924;-90
2021/09/06 02:12:03;;;;;;;;;;;13.20;99.90;;;;;;5111187;27;19923;-90
2021/09/06 02:14:29;;;;;;;;;;;13.20;99.90;;;;;;5111132;28;19980;-88
2021/09/06 02:16:55;;;;;;;;;;;13.20;99.90;;;;;;5129617;27;20283;-90
2021/09/06 02:19:20;;;;;;;;;;;13.20;99.90;;;;;;5126851;27;19948;-90
2021/09/06 02:21:46;;;;;;;;;;;13.20;99.90;;;;;;5100776;27;19931;-90
2021/09/06 02:24:12;;;;;;;;;;;13.20;99.90;;;;;;5119058;27;19928;-90
2021/09/06 02:26:37;;;;;;;;;;;13.10;99.90;;;;;;5111890;28;19927;-89
2021/09/06 02:29:03;;;;;;;;;;;13.20;99.90;;;;;;5110003;28;20010;-90
2021/09/06 02:31:29;;;;;;;;;;;13.20;99.90;;;;;;5093864;28;19965;-90
2021/09/06 02:33:55;;;;;;;;;;;13.20;99.90;;;;;;5094354;28;19974;-90
2021/09/06 02:36:21;;;;;;;;;;;13.20;99.90;;;;;;5091539;28;19927;-90
2021/09/06 02:38:46;;;;;;;;;;;13.10;99.90;;;;;;5129127;27;19981;-90
2021/09/06 02:41:12;;;;;;;;;;;13.10;99.90;;;;;;5102896;27;20373;-90
2021/09/06 02:43:38;;;;;;;;;;;13.10;99.90;;;;;;5104562;28;19920;-90
2021/09/06 02:46:04;;;;;;;;;;;13.00;99.90;;;;;;5111676;28;20007;-90
2021/09/06 02:48:29;;;;;;;;;;;13.00;99.90;;;;;;5103939;28;19924;-89
2021/09/06 02:50:55;;;;;;;;;;;13.00;99.90;;;;;;5085745;28;20020;-90
2021/09/06 02:53:20;;;;;;;;;;;13.00;99.90;;;;;;5090483;28;19921;-90
2021/09/06 02:55:46;;;;;;;;;;;13.00;99.90;;;;;;5111119;28;19963;-89
2021/09/06 02:58:11;;;;;;;;;;;13.00;99.90;;;;;;5093449;28;19923;-90
2021/09/06 03:00:37;;;;;;;;;;;13.00;99.90;;;;;;5073374;28;19963;-90
2021/09/06 03:03:03;;;;;;;;;;;13.00;99.90;;;;;;5074234;28;20363;-90
2021/09/06 03:05:28;;;;;;;;;;;13.00;99.90;;;;;;5094012;28;20378;-89
2021/09/06 03:07:54;;;;;;;;;;;13.00;99.90;;;;;;5111525;28;19924;-90
2021/09/06 03:10:19;;;;;;;;;;;13.00;99.90;;;;;;5110831;28;19930;-90
2021/09/06 03:12:45;;;;;;;;;;;13.00;99.90;;;;;;5109823;28;19926;-90
2021/09/06 03:15:11;;;;;;;;;;;13.00;99.90;;;;;;5111259;28;19920;-90
2021/09/06 03:17:36;;;;;;;;;;;13.00;99.90;;;;;;5094128;28;20399;-90
2021/09/06 03:20:03;;;;;;;;;;;13.00;99.90;;;;;;5076622;28;20037;-89
2021/09/06 03:22:28;;;;;;;;;;;13.00;99.90;;;;;;5093108;28;20378;-90
2021/09/06 03:24:54;;;;;;;;;;;13.10;99.90;;;;;;5076946;28;19919;-88
2021/09/06 03:27:19;;;;;;;;;;;13.10;99.90;;;;;;5126749;27;20344;-90
2021/09/06 03:29:45;;;;;;;;;;;13.10;99.90;;;;;;5093744;28;19919;-90
2021/09/06 03:32:11;;;;;;;;;;;13.10;99.90;;;;;;5093782;28;19980;-89
2021/09/06 03:34:37;;;;;;;;;;;13.10;99.90;;;;;;5064592;28;19928;-90
2021/09/06 03:37:03;;;;;;;;;;;13.00;99.90;;;;;;5110612;28;19935;-90
2021/09/06 03:39:28;;;;;;;;;;;13.00;99.90;;;;;;5128242;27;20370;-90
2021/09/06 03:41:54;;;;;;;;;;;13.00;99.90;;;;;;5091955;28;19981;-89
2021/09/06 03:44:20;;;;;;;;;;;13.00;99.90;;;;;;5110694;28;19935;-90
2021/09/06 03:46:45;;;;;;;;;;;13.00;99.90;;;;;;5093366;28;19977;-90
2021/09/06 03:49:11;;;;;;;;;;;13.00;99.90;;;;;;5109912;28;20006;-90
2021/09/06 03:51:36;;;;;;;;;;;13.00;99.90;;;;;;5110220;28;20694;-90
2021/09/06 03:54:02;;;;;;;;;;;12.90;99.90;;;;;;5109149;27;20500;-88
2021/09/06 03:56:28;;;;;;;;;;;12.90;99.90;;;;;;5092173;28;20002;-90
2021/09/06 03:58:54;;;;;;;;;;;12.90;99.90;;;;;;5076023;28;19924;-90
2021/09/06 04:01:20;;;;;;;;;;;12.90;99.90;;;;;;5074325;28;19951;-90
2021/09/06 04:03:45;;;;;;;;;;;12.90;99.90;;;;;;5089148;28;19924;-90
2021/09/06 04:06:11;;;;;;;;;;;12.90;99.90;;;;;;5109216;28;20424;-90
2021/09/06 04:08:37;;;;;;;;;;;12.90;99.90;;;;;;5110816;28;19978;-90
2021/09/06 04:11:02;;;;;;;;;;;12.80;99.90;;;;;;5091884;28;20405;-90
2021/09/06 04:13:28;;;;;;;;;;;12.80;99.90;;;;;;5093157;28;19927;-89
2021/09/06 04:15:53;;;;;;;;;;;12.80;99.90;;;;;;5110042;28;19981;-90
2021/09/06 04:18:19;;;;;;;;;;;12.70;99.90;;;;;;5089900;28;20018;-90
2021/09/06 04:20:45;;;;;;;;;;;12.70;99.90;;;;;;5090087;28;19935;-90
2021/09/06 04:23:10;;;;;;;;;;;12.70;99.90;;;;;;5091099;28;19973;-89
2021/09/06 04:25:36;;;;;;;;;;;12.70;99.90;;;;;;5092286;28;20709;-90
2021/09/06 04:28:02;;;;;;;;;;;12.60;99.90;;;;;;5110380;28;19924;-90
2021/09/06 04:30:27;;;;;;;;;;;12.60;99.90;;;;;;5075228;28;20385;-90
2021/09/06 04:32:53;;;;;;;;;;;12.60;99.90;;;;;;5095383;28;20051;-89
2021/09/06 04:35:19;;;;;;;;;;;12.60;99.90;;;;;;5089412;28;20379;-90
2021/09/06 04:37:44;;;;;;;;;;;12.60;99.90;;;;;;5083976;28;19923;-89
2021/09/06 04:40:10;;;;;;;;;;;12.60;99.90;;;;;;5108113;28;19928;-90
2021/09/06 04:42:36;;;;;;;;;;;12.60;99.90;;;;;;5099452;28;20344;-90
2021/09/06 04:45:01;;;;;;;;;;;12.50;99.90;;;;;;5075975;28;19919;-89
2021/09/06 04:47:27;;;;;;;;;;;12.50;99.90;;;;;;5091093;28;20375;-90
2021/09/06 04:49:53;;;;;;;;;;;12.50;99.90;;;;;;5075523;28;19924;-91
2021/09/06 04:52:19;;;;;;;;;;;12.50;99.90;;;;;;5092683;28;19920;-90
2021/09/06 04:54:44;;;;;;;;;;;12.50;99.90;;;;;;5077533;28;19931;-90
2021/09/06 04:57:10;;;;;;;;;;;12.50;99.90;;;;;;5108969;28;19924;-90
2021/09/06 04:59:36;;;;;;;;;;;12.40;99.90;;;;;;5109337;28;20442;-90
2021/09/06 05:02:02;;;;;;;;;;;12.40;99.90;;;;;;5124136;27;19978;-90
2021/09/06 05:04:27;;;;;;;;;;;12.40;99.90;;;;;;5090815;28;19977;-90
2021/09/06 05:06:56;;;;;;;;;;;12.40;99.90;;;;;;5105845;28;19923;-93
2021/09/06 05:09:21;;;;;;;;;;;12.40;99.90;;;;;;5106140;28;20291;-91
2021/09/06 05:11:48;;;;;;;;;;;12.40;99.90;;;;;;5104724;28;19924;-92
2021/09/06 05:14:13;;;;;;;;;;;12.40;99.90;;;;;;5089390;28;19924;-92
2021/09/06 05:16:39;;;;;;;;;;;12.30;99.90;;;;;;5072643;28;19927;-91
2021/09/06 05:19:04;;;;;;;;;;;12.30;99.90;;;;;;5087356;28;20048;-91
2021/09/06 05:21:30;;;;;;;;;;;12.30;99.90;;;;;;5104548;28;19928;-91
2021/09/06 05:23:57;;;;;;;;;;;12.30;99.90;;;;;;5069546;28;20065;-91
2021/09/06 05:26:23;;;;;;;;;;;12.40;99.90;;;;;;5090609;28;20745;-89
2021/09/06 05:28:49;;;;;;;;;;;12.30;99.90;;;;;;5091832;28;20006;-90
2021/09/06 05:31:14;;;;;;;;;;;12.30;99.90;;;;;;5091998;28;19923;-92
2021/09/06 05:33:40;;;;;;;;;;;12.40;99.90;;;;;;5102203;28;19942;-93
2021/09/06 05:36:07;;;;;;;;;;;12.40;99.90;;;;;;5091576;28;20400;-93
2021/09/06 05:38:32;;;;;;;;;;;12.40;99.90;;;;;;5116828;28;19920;-92
2021/09/06 05:40:58;;;;;;;;;;;12.40;99.90;;;;;;5090480;28;19926;-93
2021/09/06 05:43:24;;;;;;;;;;;12.50;99.90;;;;;;5090530;28;20302;-93
2021/09/06 05:45:49;;;;;;;;;;;12.50;99.90;;;;;;5101711;28;19973;-93
2021/09/06 05:48:15;;;;;;;;;;;12.50;99.90;;;;;;5090004;28;19923;-93
2021/09/06 05:50:40;;;;;;;;;;;12.60;99.90;;;;;;5091297;28;20272;-93
2021/09/06 05:53:06;;;;;;;;;;;12.60;99.90;;;;;;5071133;28;19920;-93
2021/09/06 05:55:32;;;;;;;;;;;12.60;99.90;;;;;;5072953;28;19924;-93
2021/09/06 05:57:58;;;;;;;;;;;12.60;99.90;;;;;;5110742;28;20263;-94
2021/09/06 06:00:23;;;;;;;;;;;12.60;99.90;;;;;;5109292;28;19931;-93
2021/09/06 06:02:49;;;;;;;;;;;12.70;99.90;;;;;;5089825;28;19923;-93
2021/09/06 06:05:15;;;;;;;;;;;12.70;99.90;;;;;;5074616;28;20445;-91
2021/09/06 06:07:40;;;;;;;;;;;12.70;99.90;;;;;;5092163;28;19919;-93
2021/09/06 06:10:06;;;;;;;;;;;12.80;99.90;;;;;;5074120;28;19988;-93
2021/09/06 06:12:32;;;;;;;;;;;12.90;99.90;;;;;;5124583;28;19972;-93
2021/09/06 06:14:58;;;;;;;;;;;12.90;99.90;;;;;;5089458;28;20449;-93
2021/09/06 06:17:24;;;;;;;;;;;13.00;99.90;;;;;;5105092;28;20398;-92
2021/09/06 06:19:50;;;;;;;;;;;13.10;99.90;;;;;;5115893;27;19932;-93
2021/09/06 06:22:16;;;;;;;;;;;13.10;99.90;;;;;;5116685;28;19931;-93
2021/09/06 06:24:41;;;;;;;;;;;13.20;99.90;;;;;;5088954;28;19920;-94
2021/09/06 06:27:07;;;;;;;;;;;13.30;99.90;;;;;;5107731;27;19924;-91
2021/09/06 06:29:32;;;;;;;;;;;13.50;99.90;;;;;;5091495;28;20015;-90
2021/09/06 06:31:58;;;;;;;;;;;13.60;99.90;;;;;;5092461;28;19931;-90
2021/09/06 06:34:23;;;;;;;;;;;13.60;99.90;;;;;;5076583;28;20279;-91
2021/09/06 06:36:49;;;;;;;;;;;13.70;99.90;;;;;;5075134;28;19920;-90
2021/09/06 06:39:17;;;;;;;;;;;13.80;99.90;;;;;;5092837;28;20377;-93
2021/09/06 06:41:45;;;;;;;;;;;13.80;99.90;;;;;;5094125;28;20259;-93
2021/09/06 06:44:10;;;;;;;;;;;13.90;99.90;;;;;;5103546;28;19976;-93
2021/09/06 06:46:36;;;;;;;;;;;14.00;99.90;;;;;;5072472;28;19920;-90
2021/09/06 06:49:01;;;;;;;;;;;14.00;99.90;;;;;;5131445;27;19923;-95
2021/09/06 06:51:27;;;;;;;;;;;14.10;99.90;;;;;;5114369;27;20503;-90
2021/09/06 06:53:53;;;;;;;;;;;14.10;99.90;;;;;;5116088;27;19927;-92
2021/09/06 06:56:19;;;;;;;;;;;14.10;99.90;;;;;;5100321;27;19928;-92
2021/09/06 06:58:44;;;;;;;;;;;14.20;99.90;;;;;;5104008;27;20053;-89
2021/09/06 07:01:10;;;;;;;;;;;14.20;99.90;;;;;;5105629;27;20021;-86
2021/09/06 07:03:36;;;;;;;;;;;14.20;99.90;;;;;;5086246;27;19930;-90
2021/09/06 07:06:01;;;;;;;;;;;14.30;99.90;;;;;;5105962;27;19920;-93
2021/09/06 07:08:27;;;;;;;;;;;14.30;99.90;;;;;;5074811;28;19942;-94
2021/09/06 07:10:52;;;;;;;;;;;14.30;99.90;;;;;;5076066;28;20014;-94
2021/09/06 07:13:18;;;;;;;;;;;14.30;99.90;;;;;;5092857;28;19926;-94
2021/09/06 07:15:44;;;;;;;;;;;14.40;99.90;;;;;;5107503;28;20401;-94
2021/09/06 07:18:09;;;;;;;;;;;14.40;99.90;;;;;;5116487;27;19924;-94
2021/09/06 07:20:35;;;;;;;;;;;14.40;99.90;;;;;;5106754;27;19928;-93
2021/09/06 07:23:01;;;;;;;;;;;14.40;99.90;;;;;;5105992;27;20002;-95
2021/09/06 07:25:27;;;;;;;;;;;14.50;99.90;;;;;;5101443;27;19923;-95
2021/09/06 07:27:52;;;;;;;;;;;14.50;99.90;;;;;;5098414;27;19981;-94
2021/09/06 07:30:18;;;;;;;;;;;14.60;99.90;;;;;;5105438;27;19923;-92
2021/09/06 07:32:48;;;;;;;;;;;14.60;99.90;;;;;;5119871;27;20010;-92
2021/09/06 07:35:14;;;;;;;;;;;14.60;99.90;;;;;;5084238;27;19978;-94
2021/09/06 07:37:40;;;;;;;;;;;14.70;99.90;;;;;;5079100;28;19978;-93
2021/09/06 07:40:10;;;;;;;;;;;14.70;99.90;;;;;;5011664;27;20290;-93
2021/09/06 07:42:36;;;;;;;;;;;14.80;99.90;;;;;;4940449;27;20716;-92
2021/09/06 07:45:02;;;;;;;;;;;14.90;99.90;;;;;;4956201;27;19936;-93
2021/09/06 07:47:28;;;;;;;;;;;14.90;99.90;;;;;;4957987;28;19934;-94
2021/09/06 07:49:55;;;;;;;;;;;15.00;99.90;;;;;;4942078;27;19928;-91
2021/09/06 07:52:20;;;;;;;;;;;15.00;99.90;;;;;;4970418;27;21632;-91
2021/09/06 07:54:46;;;;;;;;;;;15.10;99.90;;;;;;4956775;27;20252;-93
2021/09/06 07:57:12;;;;;;;;;;;15.10;99.90;;;;;;4957054;27;20372;-91
2021/09/06 07:59:38;;;;;;;;;;;15.20;99.90;;;;;;4969961;27;19931;-91
2021/09/06 08:02:03;;;;;;;;;;;15.30;99.90;;;;;;4955935;28;20429;-92
2021/09/06 08:04:29;;;;;;;;;;;15.30;99.90;;;;;;4939193;27;19943;-90
2021/09/06 08:06:55;;;;;;;;;;;15.30;99.90;;;;;;4939842;27;19930;-91
2021/09/06 08:09:21;;;;;;;;;;;15.40;99.90;;;;;;4939290;28;19949;-92
2021/09/06 08:11:48;;;;;;;;;;;15.40;99.90;;;;;;4939137;27;19954;-92
2021/09/06 08:14:14;;;;;;;;;;;15.50;99.90;;;;;;4974135;27;20614;-93
2021/09/06 08:16:40;;;;;;;;;;;15.50;99.90;;;;;;4973340;27;19927;-92
2021/09/06 08:19:05;;;;;;;;;;;15.50;99.90;;;;;;4986046;27;19927;-93
2021/09/06 08:21:31;;;;;;;;;;;15.60;99.90;;;;;;4955005;28;20854;-92
2021/09/06 08:23:58;;;;;;;;;;;15.60;99.90;;;;;;4966704;27;21022;-93
2021/09/06 08:26:24;;;;;;;;;;;15.60;99.90;;;;;;4983189;27;20835;-91
2021/09/06 08:28:50;;;;;;;;;;;15.70;99.90;;;;;;4953663;28;20342;-93
2021/09/06 08:31:15;;;;;;;;;;;15.70;99.90;;;;;;4937588;27;19982;-91
2021/09/06 08:33:41;;;;;;;;;;;15.80;99.90;;;;;;4954058;27;20008;-94
2021/09/06 08:36:09;;;;;;;;;;;15.80;99.90;;;;;;4937858;27;19928;-90
2021/09/06 08:38:34;;;;;;;;;;;15.80;99.90;;;;;;4965965;27;21087;-92
2021/09/06 08:41:01;;;;;;;;;;;15.90;99.90;;;;;;4955125;27;20457;-92
2021/09/06 08:43:27;;;;;;;;;;;16.00;99.90;;;;;;4956136;28;20554;-91
2021/09/06 08:45:53;;;;;;;;;;;16.00;99.90;;;;;;4953558;28;20910;-92
2021/09/06 08:48:19;;;;;;;;;;;16.10;99.90;;;;;;4955650;28;21036;-92
2021/09/06 08:50:44;;;;;;;;;;;16.10;99.90;;;;;;4938814;28;19928;-91
2021/09/06 08:53:10;;;;;;;;;;;16.10;99.90;;;;;;4955575;27;21159;-91
2021/09/06 08:55:38;;;;;;;;;;;16.20;99.90;;;;;;4954007;28;19996;-91
2021/09/06 08:58:04;;;;;;;;;;;16.20;99.90;;;;;;4954002;28;20531;-91
2021/09/06 09:00:31;;;;;;;;;;;16.30;99.90;;;;;;4980729;27;20733;-93
2021/09/06 09:02:58;;;;;;;;;;;16.30;99.90;;;;;;4983900;27;20226;-91
2021/09/06 09:05:24;;;;;;;;;;;16.40;99.90;;;;;;4953312;28;21040;-91
2021/09/06 09:07:56;;;;;;;;;;;16.40;99.90;;;;;;4954427;28;19963;-91
2021/09/06 09:10:26;;;;;;;;;;;16.50;99.90;;;;;;4954294;28;21040;-92
2021/09/06 09:13:01;;;;;;;;;;;16.50;99.90;;;;;;4955321;28;19927;-91
2021/09/06 09:15:27;;;;;;;;;;;16.60;99.90;;;;;;4955250;28;20018;-90
2021/09/06 09:17:53;;;;;;;;;;;16.70;99.90;;;;;;4984353;27;19927;-91
2021/09/06 09:20:19;;;;;;;;;;;16.70;99.90;;;;;;4954730;28;19931;-92
2021/09/06 09:22:44;;;;;;;;;;;16.80;99.90;;;;;;4954198;28;20334;-93
2021/09/06 09:25:11;;;;;;;;;;;16.80;99.90;;;;;;4984065;27;19953;-93
2021/09/06 09:27:41;;;;;;;;;;;16.90;99.90;;;;;;4953643;28;21101;-91
2021/09/06 09:30:21;;;;;;;;;;;16.90;99.90;;;;;;4953824;28;21649;-94
2021/09/06 09:32:47;;;;;;;;;;;17.00;99.90;;;;;;4955165;28;19935;-92
2021/09/06 09:35:12;;;;;;;;;;;17.10;99.90;;;;;;4939224;28;19927;-92
2021/09/06 09:37:38;;;;;;;;;;;17.10;99.90;;;;;;4953683;28;19966;-91
2021/09/06 09:40:06;;;;;;;;;;;17.20;99.90;;;;;;4968324;28;20932;-92
2021/09/06 09:42:31;;;;;;;;;;;17.20;99.90;;;;;;4953456;28;19935;-92
2021/09/06 09:44:58;;;;;;;;;;;17.20;99.90;;;;;;4942532;28;19975;-92
2021/09/06 09:47:26;;;;;;;;;;;17.30;99.90;;;;;;4953703;28;20557;-89
2021/09/06 09:49:52;;;;;;;;;;;17.40;99.90;;;;;;4971383;27;20540;-92
2021/09/06 09:52:19;;;;;;;;;;;17.40;99.90;;;;;;4971535;28;21562;-93
2021/09/06 09:54:45;;;;;;;;;;;17.50;99.90;;;;;;4983694;27;19936;-90
2021/09/06 09:57:12;;;;;;;;;;;17.50;99.90;;;;;;4966282;28;20596;-91
2021/09/06 09:59:37;;;;;;;;;;;17.50;99.90;;;;;;4955168;27;20004;-94
2021/09/06 10:02:12;;;;;;;;;;;17.60;99.90;;;;;;4986077;27;19932;-91
2021/09/06 10:04:42;;;;;;;;;;;17.60;99.90;;;;;;4962858;28;19950;-91
2021/09/06 10:07:08;;;;;;;;;;;17.60;99.90;;;;;;4949547;28;20100;-88
2021/09/06 10:09:44;;;;;;;;;;;17.60;99.90;;;;;;4956116;27;20905;-92
2021/09/06 10:12:11;;;;;;;;;;;17.70;99.90;;;;;;4974044;27;20568;-91
2021/09/06 10:14:47;;;;;;;;;;;17.60;99.90;;;;;;4955417;27;19987;-90
2021/09/06 10:17:13;;;;;;;;;;;17.60;99.90;;;;;;4958055;27;21196;-92
2021/09/06 10:19:43;;;;;;;;;;;17.60;99.90;;;;;;4957883;27;20445;-91
2021/09/06 10:22:19;;;;;;;;;;;17.60;99.90;;;;;;4956990;27;19936;-92
2021/09/06 10:24:55;;;;;;;;;;;17.70;99.90;;;;;;4957621;27;20720;-90
2021/09/06 10:27:21;;;;;;;;;;;17.60;99.90;;;;;;4955805;27;19927;-92
2021/09/06 10:29:56;;;;;;;;;;;17.70;99.90;;;;;;4955626;27;20776;-91
2021/09/06 10:32:32;;;;;;;;;;;17.60;99.90;;;;;;4957043;27;20007;-91
2021/09/06 10:35:28;;;;;;;;;;;17.70;99.90;;;;;;4958597;27;19934;-91
2021/09/06 10:38:01;;;;;;;;;;;17.80;99.90;;;;;;4992843;27;20012;-91
2021/09/06 10:40:32;;;;;;;;;;;17.90;99.90;;;;;;4972964;27;19978;-91
2021/09/06 10:42:57;;;;;;;;;;;18.00;99.90;;;;;;4985068;27;20042;-91
2021/09/06 10:45:23;;;;;;;;;;;18.10;99.90;;;;;;4984769;27;19935;-90
2021/09/06 10:47:56;;;;;;;;;;;18.20;99.90;;;;;;4957729;27;21104;-91
2021/09/06 10:50:22;;;;;;;;;;;18.30;99.90;;;;;;4986214;27;20292;-91
2021/09/06 10:52:49;;;;;;;;;;;18.30;99.90;;;;;;4958681;27;19934;-92
2021/09/06 10:55:16;;;;;;;;;;;18.40;99.90;;;;;;4956306;27;19928;-92
2021/09/06 10:57:42;;;;;;;;;;;18.50;99.90;;;;;;4955659;27;19927;-90
2021/09/06 11:00:14;;;;;;;;;;;18.50;99.90;;;;;;4972595;27;19938;-91
2021/09/06 11:02:40;;;;;;;;;;;18.50;99.90;;;;;;4972607;27;19927;-90
2021/09/06 11:05:06;;;;;;;;;;;18.50;99.90;;;;;;4957210;27;21388;-92
2021/09/06 11:07:32;;;;;;;;;;;18.40;99.90;;;;;;4974335;27;20205;-92
2021/09/06 11:10:11;;;;;;;;;;;18.40;99.90;;;;;;4985770;27;20094;-90
2021/09/06 11:12:40;;;;;;;;;;;18.30;99.90;;;;;;4985921;27;19924;-91
2021/09/06 11:15:06;;;;;;;;;;;18.30;99.90;;;;;;4975463;27;19927;-90
2021/09/06 11:17:32;;;;;;;;;;;18.20;99.90;;;;;;4956396;28;20359;-90
2021/09/06 11:19:58;;;;;;;;;;;18.10;99.90;;;;;;4985662;27;20013;-90
2021/09/06 11:22:28;;;;;;;;;;;18.10;99.90;;;;;;4956391;27;19927;-91
2021/09/06 11:24:55;;;;;;;;;;;18.20;99.90;;;;;;4970852;27;20413;-90
2021/09/06 11:27:25;;;;;;;;;;;18.20;99.90;;;;;;4937857;27;21182;-91
2021/09/06 11:29:51;;;;;;;;;;;18.20;99.90;;;;;;4954962;27;20811;-91
2021/09/06 11:32:17;;;;;;;;;;;18.30;99.90;;;;;;4972572;27;20493;-91
2021/09/06 11:34:43;;;;;;;;;;;18.40;99.90;;;;;;4940732;27;19928;-91
2021/09/06 11:37:09;;;;;;;;;;;18.50;99.90;;;;;;4957640;27;20558;-92
2021/09/06 11:39:35;;;;;;;;;;;18.60;99.90;;;;;;4974090;27;19980;-90
2021/09/06 11:42:02;;;;;;;;;;;18.70;99.90;;;;;;4956782;27;19928;-91
2021/09/06 11:44:28;;;;;;;;;;;18.80;99.90;;;;;;4957264;27;20968;-92
2021/09/06 11:46:54;;;;;;;;;;;19.00;99.90;;;;;;5049489;27;19984;-92
2021/09/06 11:49:19;;;;;;;;;;;19.10;99.90;;;;;;5039592;27;19927;-92
2021/09/06 11:51:45;;;;;;;;;;;19.10;99.90;;;;;;5021584;27;20808;-91
2021/09/06 11:54:12;;;;;;;;;;;19.10;99.90;;;;;;5040091;27;19960;-90
2021/09/06 11:56:37;;;;;;;;;;;19.10;99.90;;;;;;5006444;27;19927;-92
2021/09/06 11:59:03;;;;;;;;;;;19.20;99.90;;;;;;5005185;27;20729;-91
2021/09/06 12:01:29;;;;;;;;;;;19.20;99.90;;;;;;5006798;27;20054;-92
2021/09/06 12:04:10;;;;;;;;;;;19.30;99.90;;;;;;5022827;27;21292;-90
2021/09/06 12:06:39;;;;;;;;;;;19.40;99.90;;;;;;5023255;27;19923;-88
2021/09/06 12:09:06;;;;;;;;;;;19.50;99.90;;;;;;5006827;27;20804;-90
2021/09/06 12:11:39;;;;;;;;;;;19.60;99.90;;;;;;5021726;27;19928;-89
2021/09/06 12:14:07;;;;;;;;;;;19.60;99.90;;;;;;5022645;27;21095;-90
2021/09/06 12:16:33;;;;;;;;;;;19.60;99.90;;;;;;5039057;27;19924;-89
2021/09/06 12:19:00;;;;;;;;;;;19.60;99.90;;;;;;5039933;27;19988;-89
2021/09/06 12:21:26;;;;;;;;;;;19.60;99.90;;;;;;5037532;27;19932;-89
2021/09/06 12:23:59;;;;;;;;;;;19.60;99.90;;;;;;5039293;27;20030;-90
2021/09/06 12:26:25;;;;;;;;;;;19.50;99.90;;;;;;5038574;27;20551;-89
2021/09/06 12:29:00;;;;;;;;;;;19.50;99.90;;;;;;5021654;27;19934;-90
2021/09/06 12:31:37;;;;;;;;;;;19.50;99.90;;;;;;5020815;27;19933;-89
2021/09/06 12:34:03;;;;;;;;;;;19.70;99.90;;;;;;5020660;28;19928;-89
2021/09/06 12:36:29;;;;;;;;;;;19.80;99.90;;;;;;5022251;27;19934;-90
2021/09/06 12:38:54;;;;;;;;;;;20.00;99.90;;;;;;5038734;27;20318;-90
2021/09/06 12:41:20;;;;;;;;;;;20.10;99.90;;;;;;5036919;27;19981;-91
2021/09/06 12:43:46;;;;;;;;;;;20.20;99.90;;;;;;5035871;27;20396;-91
2021/09/06 12:46:11;;;;;;;;;;;20.40;99.90;;;;;;5021970;27;19924;-91
2021/09/06 12:48:37;;;;;;;;;;;20.50;99.90;;;;;;5004272;28;19928;-89
2021/09/06 12:51:02;;;;;;;;;;;20.60;99.90;;;;;;5021556;27;19934;-89
2021/09/06 12:53:28;;;;;;;;;;;20.60;99.90;;;;;;5051581;27;20019;-90
2021/09/06 12:55:54;;;;;;;;;;;20.60;99.90;;;;;;5056178;27;19927;-89
2021/09/06 12:58:19;;;;;;;;;;;20.40;99.90;;;;;;5005151;27;19934;-90
2021/09/06 13:00:45;;;;;;;;;;;20.40;99.90;;;;;;5054325;27;20005;-88
2021/09/06 13:03:11;;;;;;;;;;;20.30;99.90;;;;;;5037079;27;21772;-89
2021/09/06 13:05:36;;;;;;;;;;;20.20;99.90;;;;;;5005739;27;20288;-90
2021/09/06 13:08:02;;;;;;;;;;;20.10;99.90;;;;;;5038768;27;20015;-90
2021/09/06 13:10:30;;;;;;;;;;;20.10;99.90;;;;;;5021400;28;20413;-89
2021/09/06 13:12:56;;;;;;;;;;;20.00;99.90;;;;;;5020343;28;19924;-90
2021/09/06 13:15:22;;;;;;;;;;;20.00;99.90;;;;;;5006371;28;19988;-89
2021/09/06 13:17:48;;;;;;;;;;;20.00;99.90;;;;;;5022834;28;20971;-89
2021/09/06 13:20:13;;;;;;;;;;;19.90;99.90;;;;;;5049383;27;19938;-90
2021/09/06 13:22:40;;;;;;;;;;;19.90;99.90;;;;;;5049800;27;19981;-88
2021/09/06 13:25:07;;;;;;;;;;;19.90;99.90;;;;;;5037132;27;19923;-90
2021/09/06 13:27:33;;;;;;;;;;;19.80;99.90;;;;;;5021716;28;20042;-89
2021/09/06 13:30:00;;;;;;;;;;;19.80;99.90;;;;;;5036818;28;19967;-90
2021/09/06 13:32:26;;;;;;;;;;;19.70;99.90;;;;;;5021725;27;20886;-90
2021/09/06 13:34:52;;;;;;;;;;;19.70;99.90;;;;;;5023702;27;20078;-89
2021/09/06 13:37:18;;;;;;;;;;;19.60;99.90;;;;;;5071539;27;19924;-90
2021/09/06 13:39:44;;;;;;;;;;;19.70;99.90;;;;;;5023537;27;19928;-90
2021/09/06 13:42:09;;;;;;;;;;;19.70;99.90;;;;;;5024456;27;19934;-89
2021/09/06 13:44:35;;;;;;;;;;;19.70;99.90;;;;;;5041420;27;19977;-89
2021/09/06 13:47:01;;;;;;;;;;;19.80;99.90;;;;;;5040901;27;20491;-89
2021/09/06 13:49:26;;;;;;;;;;;19.90;99.90;;;;;;5006739;27;19934;-89
2021/09/06 13:51:52;;;;;;;;;;;20.00;99.90;;;;;;5051322;27;20314;-89
2021/09/06 13:54:18;;;;;;;;;;;20.20;99.90;;;;;;5023233;27;19927;-89
2021/09/06 13:56:44;;;;;;;;;;;20.20;99.90;;;;;;5022436;27;20420;-90
2021/09/06 13:59:10;;;;;;;;;;;20.30;99.90;;;;;;5008786;27;21027;-90
2021/09/06 14:01:35;;;;;;;;;;;20.40;99.90;;;;;;5024516;27;19931;-90
2021/09/06 14:04:01;;;;;;;;;;;20.60;99.90;;;;;;5056938;27;19927;-89
2021/09/06 14:06:28;;;;;;;;;;;20.70;99.90;;;;;;5025477;27;20382;-89
2021/09/06 14:08:53;;;;;;;;;;;20.80;99.90;;;;;;5025495;27;20113;-89
2021/09/06 14:11:19;;;;;;;;;;;20.90;99.90;;;;;;5022825;27;20049;-89